Weather observations for the past three days for
Langlade County Airport
Metric (Imperial)
Date Time (cdt) Wind (kph) Vis. (km) Weather Sky Cond. Temperature (ºC) Relative Humidity Wind Chill (°C) Heat Index (°C) Pressure Precipitation (cm)
Air Dwpt 6 hour altimeter (cm) sea level (mb) 1 hr 3 hr 6 hr
Max. Min.
01 14:15 W 11 16.09 Fair CLR 33 14.4 32% 32 76.07 0.0
01 13:55 SW 17 16.09 Fair CLR 32.6 14.9 34% 32 76.07 0.0
01 13:35 W 7 16.09 Fair CLR 32.3 16.1 38% 32 76.1 0.0
01 13:15 SW 6 16.09 Fair CLR 32.1 17.6 42% 33 76.1 0.0
01 12:55 SW 7 16.09 Fair CLR 31.7 16.7 32 17.2 41% 32 76.12 0.0
01 12:35 Calm 16.09 Fair CLR 31.1 15.4 39% 31 76.12 0.0
01 12:15 Calm 16.09 Fair CLR 31.3 15.4 38% 31 76.15 0.0
01 11:55 SW 7 16.09 Fair CLR 30.6 17.5 45% 31 76.15 0.0
01 11:35 W 7 16.09 Fair CLR 30.5 19 50% 32 76.17 0.0
01 11:15 Calm 16.09 Fair CLR 29.7 18.3 50% 31 76.17 0.0
01 10:55 Calm 16.09 Fair CLR 29.5 17.8 49% 30 76.2 0.0
01 10:35 Calm 16.09 Fair CLR 29 18.6 53% 30 76.2 0.0
01 10:15 Calm 16.09 Fair CLR 27.9 21.1 67% 30 76.17 0.0
01 09:55 Calm 16.09 Fair CLR 27.3 21 69% 29 76.2 0.0
01 09:35 Calm 16.09 Fair CLR 24.1 23.5 96% 23 76.17 0.0
01 09:15 Calm 16.09 Fair CLR 22.9 22.9 100% 76.2 0.0
01 08:55 Calm 16.09 Fair CLR 22.5 22.5 100% 76.2 0.0
01 08:35 Calm 16.09 Partly Cloudy SCT001 21.7 21.7 100% 76.2 0.0
01 08:15 Calm 8.05 Fog/Mist BKN001 20.6 20.6 100% 76.2 0.0
01 07:55 Calm 6.44 Fog/Mist BKN001 19.4 19.4 100% 76.17 0.0
01 07:35 Calm 3.22 Fog/Mist OVC001 18.5 18.5 100% 76.17 0.0
01 07:15 N 6 0.24 Fog OVC001 17.5 17.5 100% 76.17 0.0
01 06:55 Calm 2.82 Fog/Mist OVC001 17.1 17.1 21.3 16.7 100% 76.15 0.0 0.03
01 06:35 Calm 0.24 Fog OVC001 16.7 16.7 100% 76.12 0.0
01 06:15 Calm 0.40 Fog OVC001 17.1 17.1 100% 76.1 0.0
01 05:55 Calm 0.80 Fog OVC001 17.2 17.2 100% 76.1 0.0
01 05:35 Calm 0.40 Fog OVC001 17.9 17.9 100% 76.1 0.0
01 05:15 Calm 0.40 Fog OVC001 18.5 18.5 100% 76.1 0.0
01 04:55 Calm 0.80 Fog OVC001 18.9 18.9 100% 76.07 0.0
01 04:35 Calm 0.24 Fog OVC001 19.6 19.6 100% 76.07 0.0
01 04:15 Calm 0.40 Fog OVC001 19.8 19.8 100% 76.07 0.0
01 03:55 Calm 0.40 Fog OVC001 20.7 20.7 100% 76.07 0.0
01 03:35 Calm 0.24 Fog OVC001 21.1 21.1 100% 76.1 0.0
01 03:15 Calm 0.40 Fog OVC001 20.9 20.9 100% 76.1 0.0
01 02:55 Calm 0.24 Fog OVC001 20.5 20.5 100% 76.07 0.0
01 02:35 Calm 0.80 Fog OVC001 20.5 20.5 100% 76.07 0.0
01 02:15 Calm 0.40 Fog OVC001 20.8 20.8 100% 76.1 0.0
01 01:55 Calm 0.40 Fog OVC001 20.7 20.7 100% 76.07 0.0
01 01:35 Calm 0.24 Fog OVC001 20.8 20.8 100% 76.07 0.0
01 01:15 Calm 0.40 Fog OVC001 20.6 20.6 100% 76.07 0.0
01 00:55 Calm 0.40 Fog OVC001 20.5 20.5 28.7 20.5 100% 76.07 0.0
01 00:35 Calm 0.24 Fog OVC001 20.7 20.7 100% 76.07 0.0
01 00:15 Calm 0.40 Fog OVC001 21 21 100% 76.07 0.0
31 23:55 Calm 0.80 Fog OVC003 21.5 21.5 100% 76.05 0.0
31 23:35 Calm 0.80 Fog OVC003 21.6 21.6 100% 76.05 0.0
31 23:15 Calm 1.21 Fog/Mist OVC003 22 22 100% 76.05 0.0
31 22:55 Calm 0.40 Fog OVC003 22.2 22.2 100% 76.05 0.0
31 22:35 Calm 4.83 Fog/Mist CLR 22.4 22.4 100% 76.05 0.0
31 22:15 Calm 11.27 Fair CLR 23.2 23.2 100% 76.05 0.0
31 21:55 Calm 4.83 Fog/Mist CLR 23.1 23.1 100% 76.05 0.0
31 21:35 Calm 16.09 Partly Cloudy SCT100 24 24 100% 23 76.05 0.0
31 21:15 Calm 11.27 Fair CLR 24 24 100% 23 76.05 0.0
31 20:55 Calm 16.09 Fair CLR 24.4 24 98% 24 76.05 0.0
31 20:35 Calm 16.09 Fair CLR 25.1 24.5 96% 26 76.05 0.0
31 20:15 Calm 16.09 Partly Cloudy SCT110 25.2 24.5 96% 26 76.02 0.0
31 19:55 SW 6 16.09 Fair CLR 26 25.1 95% 28 76 0.0
31 19:35 SW 7 16.09 Fair CLR 26.8 25.2 91% 30 75.97 0.0
31 19:15 Calm 16.09 Fair CLR 27.9 25.5 87% 33 75.97 0.0
31 18:35 NW 6 16.09 Partly Cloudy SCT120 29.5 25.1 77% 35 75.97 0.0
31 18:15 W 7 16.09 Partly Cloudy SCT120 30.1 25.1 75% 36 75.95 0.0
31 17:55 W 7 16.09 Fair CLR 30.5 25.2 73% 37 75.95 0.0
31 17:30 W 9 16.09 Fair CLR 29.5 25.3 78% 36 75.95 0.0
31 17:15 SW 9 16.09 Fair CLR 29.3 25.1 78% 35 75.9 0.0
31 16:55 SW 7 16.09 Partly Cloudy SCT025 29.5 25.2 78% 36 75.92 0.0
31 16:35 SW 11 16.09 Partly Cloudy SCT023 30.1 25.3 76% 37 75.95 0.0
31 16:15 SW 7 16.09 Partly Cloudy SCT023 29.7 25.5 78% 36 75.92 0.0
31 15:55 SW 7 16.09 Partly Cloudy SCT023 29.6 25.2 77% 36 75.9 0.0
31 15:35 SW 6 16.09 Partly Cloudy SCT023 29.5 25.4 79% 36 75.9 0.0
31 15:15 S 9 16.09 Partly Cloudy SCT025 29.5 25.2 78% 36 75.9 0.0
31 14:55 S 11 16.09 Partly Cloudy SCT023 29.7 25.3 77% 36 75.9 0.0
31 14:35 S 11 16.09 Partly Cloudy SCT023 29.5 24.9 76% 35 75.9 0.0
31 14:15 S 7 16.09 Partly Cloudy SCT023 29.2 24.7 77% 35 75.92 0.0
31 13:55 S 6 16.09 Fair CLR 29.1 24.6 77% 34 75.92 0.0
31 13:35 Calm 16.09 Fair CLR 28.4 24 77% 33 75.9 0.0
31 13:15 Calm 16.09 Partly Cloudy SCT015 28.2 24 78% 32 75.95 0.0
31 12:55 Calm 16.09 Mostly Cloudy BKN015 27.4 23.5 27.8 21.5 79% 31 75.97 0.0
31 12:35 S 6 16.09 Mostly Cloudy BKN013 27 23.7 82% 30 75.97 0.0
31 12:15 S 6 16.09 Overcast OVC011 26.1 23.2 84% 28 75.97 0.0
31 11:50 Calm 16.09 Overcast OVC011 25.2 23 88% 26 75.97 0.0
31 11:35 S 6 16.09 Overcast OVC009 24.9 22.9 89% 25 76 0.0
31 11:15 Calm 11.27 Overcast OVC009 24.4 22.9 91% 24 75.97 0.0
31 10:55 Calm 11.27 Overcast OVC007 24.2 22.9 92% 24 75.97 0.0
31 10:35 S 9 11.27 Overcast OVC007 23.9 22.7 93% 23 75.97 0.0
31 10:15 SE 11 8.05 Fog/Mist OVC005 23.6 22.9 96% 75.95 0.0
31 09:55 SE 15 8.05 Fog/Mist OVC003 23 23 100% 75.95 0.0
31 09:35 SE 15 6.44 Fog/Mist OVC003 22.5 22.5 100% 75.95 0.0
31 09:15 SE 15 4.83 Fog/Mist OVC003 22.3 22.3 100% 75.92 0.0
31 08:55 SE 11 4.83 Fog/Mist OVC003 22.2 22.2 100% 75.95 0.0
31 08:35 SE 13 3.22 Fog/Mist OVC003 22 22 100% 75.95 0.0
31 08:10 SE 11 2.41 Fog/Mist OVC003 21.7 21.7 100% 75.95 0.0
31 07:55 SE 17 4.02 Fog/Mist OVC003 21.9 21.9 100% 75.95 0.0
31 07:35 SE 17 2.82 Fog/Mist OVC003 21.6 21.6 100% 75.95 0.0
31 07:15 SE 11 2.41 Fog/Mist OVC003 21.5 21.5 100% 75.95 0.0
31 06:55 SE 20 1.21 Fog/Mist OVC003 21.5 21.5 21.5 21.3 100% 75.95 0.0
31 06:35 SE 11 4.02 Fog/Mist OVC003 21.3 21.3 100% 75.92 0.0
31 06:15 SE 15 2.82 Fog/Mist OVC003 21.4 21.4 100% 75.95 0.0
31 05:55 SE 13 0.80 Fog OVC003 21.5 21.5 100% 75.95 0.0
31 05:35 E 13 0.80 Fog OVC003 21.3 21.3 100% 75.95 0.0
31 05:15 E 7 0.80 Fog OVC003 21.4 21.4 100% 75.97 0.0
31 04:55 SE 11 1.61 Fog/Mist OVC003 21.3 21.3 100% 76 0.0
31 04:35 E 13 1.21 Fog/Mist OVC003 21.3 21.3 100% 75.97 0.0
31 04:15 E 11 1.21 Fog/Mist OVC003 21.3 21.3 100% 75.97 0.0
31 03:55 E 9 1.61 Fog/Mist OVC003 21.3 21.3 100% 76 0.0
31 03:35 E 13 1.61 Fog/Mist OVC003 21.3 21.3 100% 75.97 0.0
31 03:15 E 17 1.21 Fog/Mist OVC003 21.3 21.3 100% 75.97 0.0
31 02:55 E 13 2.01 Fog/Mist OVC003 21.3 21.3 100% 76 0.0
31 02:35 E 9 3.22 Fog/Mist OVC003 21.5 21.5 100% 76.02 0.0
31 02:15 E 13 4.02 Fog/Mist OVC003 21.5 21.5 100% 76.02 0.0
31 01:55 E 13 4.83 Fog/Mist OVC003 21.5 21.5 100% 76.02 0.0
31 01:35 E 11 6.44 Fog/Mist BKN003 OVC007 21.5 21.5 100% 76.05 0.0
31 01:15 E 11 8.05 Fog/Mist BKN005 OVC011 21.5 21.5 100% 76.1 0.0
31 00:55 SE 11 8.05 Fog/Mist SCT005 OVC013 21.5 21.5 23 21.5 100% 76.12 0.0 0.1
31 00:35 SE 11 8.05 Fog/Mist BKN005 OVC015 21.5 21.5 100% 76.15 0.0
31 00:15 SE 7 8.05 Fog/Mist OVC005 21.5 21.5 100% 76.12 0.0
30 23:55 SE 7 8.05 Fog/Mist OVC005 21.5 21.5 100% 76.15 0.0
30 23:35 SE 9 8.05 Fog/Mist OVC005 21.5 21.5 100% 76.15 0.0
30 23:15 SE 9 11.27 Mostly Cloudy BKN005 21.6 21.6 100% 76.15 0.0
30 22:55 E 7 11.27 Overcast OVC005 21.8 21.8 100% 76.1 0.0 0.05
30 22:35 E 9 11.27 Light Rain BKN005 BKN021 BKN041 21.8 21.8 100% 76.12 0.0 0.05
30 22:15 E 9 8.05 Rain OVC005 22 22 100% 76.12 0.0 0.05
30 21:55 E 9 11.27 Light Rain OVC005 22.3 22.1 99% 76.15 0.0
30 21:35 SE 11 11.27 Overcast OVC005 22.3 22.2 99% 76.15 0.0
30 21:15 E 11 11.27 Overcast OVC005 22.4 22.2 99% 76.12 0.0
30 20:55 E 15 11.27 Overcast OVC005 22.5 22.2 98% 76.1 0.0
30 20:35 E 11 11.27 Overcast OVC005 22.5 22.2 98% 76.07 0.0
30 20:15 E 7 11.27 Overcast OVC005 22.5 22.2 98% 76.07 0.0
30 19:55 E 11 11.27 Overcast OVC007 22.5 22.1 98% 76.07 0.0
30 19:35 E 11 11.27 Overcast OVC007 22.7 22.2 97% 76.07 0.0
30 19:15 E 9 11.27 Overcast BKN009 BKN013 OVC030 22.9 22.2 96% 76.07 0.0
30 18:55 E 9 11.27 Overcast BKN009 BKN013 OVC028 23 22.4 24.1 23 96% 76.07 0.0
30 18:35 E 7 16.09 Overcast BKN009 OVC026 23.1 22.3 95% 76.07 0.0
30 18:15 E 9 16.09 Light Drizzle BKN011 OVC026 23.3 22.3 94% 76.07 0.0
30 17:55 E 11 16.09 Overcast OVC013 23.6 22.2 92% 76.05 0.0
30 17:35 E 15 16.09 Overcast OVC011 23.8 22.1 90% 76.05 0.0
30 17:15 E 11 16.09 Mostly Cloudy BKN011 24 22.1 89% 24 76.02 0.0
30 16:55 E 13 16.09 Mostly Cloudy BKN011 BKN029 24 22.1 89% 24 76 0.0
30 16:35 E 7 16.09 Overcast SCT011 OVC029 24 22 89% 24 76.02 0.0
30 16:15 E 9 16.09 Overcast BKN011 OVC029 24 22 89% 24 76.02 0.0
30 15:55 E 9 16.09 Overcast SCT011 BKN017 OVC031 24 21.9 88% 24 76.05 0.0
30 15:35 E 9 16.09 Overcast SCT009 OVC017 23.5 22 91% 76.05 0.0
30 15:15 E 7 16.09 Overcast BKN012 OVC019 23.7 22 90% 76.07 0.0
30 14:55 E 9 16.09 Overcast OVC010 23.3 21.9 92% 76.07 0.0
30 14:35 E 9 16.09 Overcast BKN010 OVC014 23.1 21.7 92% 76.1 0.0
30 14:15 E 6 16.09 Overcast OVC012 23.1 21.6 91% 76.1 0.0
30 13:55 SE 11 16.09 Overcast OVC012 23.5 21.5 89% 76.1 0.0
30 13:35 SE 13 16.09 Overcast OVC012 24 21.5 86% 24 76.07 0.0
30 13:15 E 15 16.09 Overcast OVC012 23.7 21.6 88% 76.05 0.0
30 12:55 E 17 16.09 Overcast OVC012 23.9 21.5 23.9 19.7 86% 24 76.05 0.0
30 12:35 E 20 16.09 Overcast OVC009 23.2 21.6 91% 76.05 0.0
30 12:15 E 17 11.27 Overcast BKN005 OVC009 22.5 21.6 95% 76.05 0.0
30 11:55 E 15 4.83 Fog/Mist OVC003 21.7 21.4 98% 76.05 0.0
30 11:35 E 13 4.83 Fog/Mist OVC003 21.5 21.3 99% 76.07 0.0
30 11:15 E 13 4.83 Fog/Mist OVC003 21.4 21.2 99% 76.07 0.0
30 10:55 E 15 4.83 Fog/Mist OVC003 21.3 21.2 99% 76.07 0.0
30 10:35 E 13 4.83 Fog/Mist OVC003 21.2 21.1 99% 76.07 0.0
30 10:15 E 13 6.44 Fog/Mist OVC003 21.1 21 99% 76.07 0.0
30 09:55 E 11 6.44 Fog/Mist OVC003 21.2 21 99% 76.07 0.0
30 09:35 E 15 8.05 Fog/Mist OVC003 21.3 21.1 99% 76.05 0.0
30 09:10 E 13 6.44 Fog/Mist OVC003 21.1 21.1 100% 76.02 0.0
30 08:55 E 11 4.83 Fog/Mist OVC003 20.7 20.7 100% 76.02 0.0
30 08:35 E 9 4.83 Fog/Mist OVC003 20.5 20.5 100% 76.05 0.0
30 08:15 E 9 4.83 Fog/Mist OVC003 20.3 20.3 100% 76.05 0.0
30 07:55 E 7 4.02 Fog/Mist SCT003 OVC027 20.2 20.2 100% 76.05 0.0
30 07:35 E 7 4.02 Fog/Mist SCT003 OVC027 20 20 100% 76.05 0.0
30 07:15 Calm 4.02 Fog/Mist OVC027 20 20 100% 76.07 0.0
30 06:55 Calm 4.02 Fog/Mist OVC025 19.7 19.7 19.8 18.8 100% 76.05 0.0
30 06:35 E 6 4.02 Fog/Mist SCT003 OVC025 19.7 19.7 100% 76.02 0.0
30 06:15 NE 7 4.83 Fog/Mist SCT003 OVC025 19.6 19.6 100% 76.02 0.0
30 05:55 Calm 6.44 Fog/Mist OVC029 19.8 19.8 100% 76 0.0
30 05:35 Calm 6.44 Fog/Mist SCT008 OVC029 19.6 19.6 100% 76 0.0
30 05:15 Calm 6.44 Fog/Mist SCT008 OVC031 19.6 19.6 100% 76.02 0.0
30 04:55 SE 6 6.44 Fog/Mist SCT008 BKN031 19.7 19.7 100% 76 0.0
30 04:35 SE 7 8.05 Fog/Mist SCT033 SCT039 SCT060 19.7 19.7 100% 76 0.0
30 04:15 Calm 6.44 Fog/Mist SCT007 SCT040 SCT055 19.6 19.6 100% 76.02 0.0
30 03:55 SE 6 6.44 Fog/Mist CLR 19.5 19.5 100% 76.02 0.0
30 03:35 SE 6 8.05 Fog/Mist CLR 19.5 19.5 100% 76.02 0.0
30 03:15 Calm 8.05 Fog/Mist CLR 19.3 19.3 100% 76.05 0.0
30 02:55 Calm 8.05 Fog/Mist SCT110 19.3 19.3 100% 76.05 0.0
30 02:35 Calm 6.44 Light Rain SCT100 19.2 19.2 100% 76.05 0.0
30 02:15 SE 6 6.44 Fog/Mist CLR 19.1 19.1 100% 76.07 0.0
30 01:55 Calm 4.83 Fog/Mist CLR 19.1 19.1 100% 76.1 0.0
30 01:35 Calm 8.05 Fog/Mist CLR 19.3 19.3 100% 76.07 0.0
30 01:15 Calm 8.05 Fog/Mist SCT060 19.5 19.5 100% 76.1 0.0
30 00:55 SE 6 11.27 Partly Cloudy SCT009 SCT060 19.6 19.6 19.8 19.5 100% 76.1 0.0
30 00:35 S 9 11.27 Overcast SCT009 OVC060 19.7 19.7 100% 76.12 0.0
30 00:15 SE 7 11.27 Overcast OVC060 19.7 19.7 100% 76.12 0.0
29 23:55 SE 9 8.05 Fog/Mist SCT004 SCT041 OVC060 19.7 19.7 100% 76.12 0.0
29 23:35 SE 9 11.27 Overcast SCT006 OVC039 19.8 19.8 100% 76.12 0.0
29 23:15 SE 13 11.27 Overcast SCT006 OVC037 19.8 19.8 100% 76.15 0.0
29 22:55 SE 13 11.27 Overcast SCT006 OVC037 19.7 19.7 100% 76.15 0.0
29 22:35 SE 13 11.27 Overcast SCT006 SCT027 OVC035 19.7 19.7 100% 76.15 0.0
29 22:15 SE 13 8.05 Fog/Mist SCT006 SCT009 OVC035 19.6 19.6 100% 76.15 0.0
29 21:55 SE 13 11.27 Overcast BKN006 BKN012 OVC033 19.6 19.6 100% 76.15 0.0
29 21:35 SE 17 11.27 Overcast SCT008 BKN012 OVC036 19.5 19.5 100% 76.17 0.0
29 21:15 SE 13 11.27 Overcast BKN008 OVC012 19.5 19.5 100% 76.17 0.0
29 20:55 SE 13 11.27 Overcast SCT006 BKN010 OVC015 19.5 19.5 100% 76.15 0.0
29 20:35 SE 13 11.27 Overcast BKN008 OVC014 19.5 19.5 100% 76.17 0.0
29 20:15 SE 11 11.27 Overcast BKN008 OVC017 19.5 19.3 99% 76.15 0.0
29 19:55 SE 13 16.09 Overcast OVC008 19.5 19.3 99% 76.15 0.0
29 19:35 SE 11 16.09 Overcast OVC008 19.5 19.3 99% 76.15 0.0
29 19:15 SE 11 16.09 Overcast BKN008 BKN014 OVC050 19.5 19.2 98% 76.15 0.0
29 18:55 SE 13 11.27 Overcast BKN008 BKN014 OVC050 19.5 19.5 20.4 19.2 100% 76.15 0.0 0.3
29 18:35 SE 19 G 31 16.09 Overcast OVC008 19.5 19.5 100% 76.15 0.0
29 18:10 SE 15 16.09 Overcast BKN008 BKN012 OVC065 19.6 19.5 99% 76.17 0.0
29 17:35 SE 15 16.09 Overcast SCT006 BKN010 OVC050 19.5 19.5 100% 76.17 0.0
29 17:15 SE 13 16.09 Overcast SCT007 BKN016 OVC050 19.5 19.5 100% 76.17 0.0
29 16:55 SE 15 16.09 Overcast BKN007 OVC014 19.5 19.5 100% 76.2 0.0
29 16:35 SE 15 8.05 Fog/Mist BKN007 BKN012 OVC041 19.6 19.6 100% 76.23 0.0
29 16:15 SE 9 16.09 Overcast SCT010 BKN014 OVC043 19.5 19.5 100% 76.25 0.0
29 15:55 SE 11 16.09 Light Rain BKN010 OVC013 19.5 19.4 99% 76.25 0.0 0.18 0.3
29 15:35 SE 7 8.05 Light Rain SCT008 BKN013 OVC050 19.4 19.4 100% 76.28 0.0 0.15
29 15:15 SE 7 4.83 Drizzle SCT004 SCT028 OVC050 20.1 20.1 100% 76.3 0.0 0.03
29 14:55 S 9 8.05 Drizzle SCT006 BKN046 OVC050 20 20 100% 76.33 0.0 0.03
29 14:35 S 11 16.09 Light Drizzle BKN006 BKN023 OVC060 20 20 100% 76.33 0.0 0.03
Date Time (cdt) Wind (kph) Vis. (km) Weather Sky Cond. Air Dwpt Max. Min. Relative Humidity Wind Chill (°C) Heat Index (°C) altimeter (cm) sea level (mb) 1 hr 3 hr 6 hr
6 hour
Temperature (ºC) Pressure Precipitation (cm)